createdAt,value
2024-02-13T00:07:24.202Z,3.00
2024-02-13T00:17:30.136Z,2.65
2024-02-13T00:27:35.361Z,2.38
2024-02-13T00:37:38.079Z,2.90
2024-02-13T00:47:43.525Z,2.50
2024-02-13T00:57:47.592Z,2.90
2024-02-13T01:07:49.430Z,3.13
2024-02-13T01:17:51.362Z,3.60
2024-02-13T01:27:53.293Z,3.88
2024-02-13T01:37:55.646Z,3.30
2024-02-13T01:48:03.272Z,5.53
2024-02-13T01:58:10.453Z,3.15
2024-02-13T02:08:15.499Z,3.65
2024-02-13T02:18:19.612Z,3.40
2024-02-13T02:28:21.725Z,3.55
2024-02-13T02:38:23.822Z,4.20
2024-02-13T02:48:26.124Z,4.45
2024-02-13T02:58:29.080Z,4.22
2024-02-13T03:08:34.940Z,3.83
2024-02-13T03:18:38.790Z,4.70
2024-02-13T03:28:40.625Z,3.70
2024-02-13T03:38:44.234Z,3.90
2024-02-13T03:48:46.192Z,4.30
2024-02-13T03:58:48.111Z,3.85
2024-02-13T04:08:51.474Z,4.28
2024-02-13T04:28:58.212Z,4.10
2024-02-13T04:39:01.222Z,4.38
2024-02-13T04:49:03.095Z,4.30
2024-02-13T04:59:09.337Z,4.05
2024-02-13T05:09:12.827Z,4.55
2024-02-13T05:29:16.668Z,4.50
2024-02-13T05:39:18.903Z,5.28
2024-02-13T05:49:20.879Z,5.53
2024-02-13T05:59:27.226Z,5.70
2024-02-13T06:09:29.319Z,5.60
2024-02-13T06:19:31.420Z,6.05
2024-02-13T06:29:33.267Z,5.95
2024-02-13T06:39:35.257Z,5.65
2024-02-13T06:49:37.826Z,5.97
2024-02-13T06:59:40.701Z,6.13
2024-02-13T07:09:47.666Z,5.83
2024-02-13T07:19:50.242Z,5.10
2024-02-13T07:29:55.675Z,5.10
2024-02-13T07:39:57.580Z,5.85
2024-02-13T07:50:01.398Z,6.22
2024-02-13T08:00:05.640Z,6.38
2024-02-13T08:10:12.527Z,6.05
2024-02-13T08:20:14.720Z,6.13
2024-02-13T08:30:17.964Z,5.80
2024-02-13T08:40:20.905Z,5.68
2024-02-13T08:50:22.860Z,5.10
2024-02-13T09:00:30.246Z,4.85
2024-02-13T09:10:32.026Z,5.30
2024-02-13T09:20:33.957Z,5.18
2024-02-13T09:30:36.814Z,5.28
2024-02-13T09:40:39.338Z,4.18
2024-02-13T09:50:44.216Z,4.70
2024-02-13T10:00:46.284Z,4.95
2024-02-13T10:11:00.357Z,3.93
2024-02-13T10:21:05.765Z,4.50
2024-02-13T10:31:08.998Z,3.95
2024-02-13T10:41:11.904Z,3.30
2024-02-13T10:51:17.402Z,2.75
2024-02-13T11:01:24.002Z,2.33
2024-02-13T11:11:27.279Z,2.33
2024-02-13T11:21:29.544Z,2.42
2024-02-13T11:31:32.272Z,2.17
2024-02-13T11:41:35.494Z,2.90
2024-02-13T11:51:40.848Z,2.35
2024-02-13T12:01:44.832Z,2.60
2024-02-13T12:11:47.343Z,3.17
2024-02-13T12:21:49.951Z,2.75
2024-02-13T12:31:52.284Z,3.08
2024-02-13T12:51:57.171Z,2.13
2024-02-13T13:12:02.776Z,3.22
2024-02-13T13:22:04.821Z,2.73
2024-02-13T13:32:07.586Z,2.00
2024-02-13T13:42:11.273Z,2.05
2024-02-13T13:52:19.589Z,1.80
2024-02-13T14:02:21.568Z,2.10
2024-02-13T14:12:23.512Z,1.93
2024-02-13T14:22:28.275Z,2.30
2024-02-13T14:32:31.669Z,2.20
2024-02-13T14:42:35.093Z,2.20
2024-02-13T14:52:44.224Z,2.20
2024-02-13T15:02:50.691Z,1.80
2024-02-13T15:12:52.720Z,2.22
2024-02-13T15:22:54.687Z,1.77
2024-02-13T15:32:58.041Z,1.57
2024-02-13T15:43:20.917Z,1.67
2024-02-13T15:53:28.808Z,1.70
2024-02-13T16:03:37.853Z,1.83
2024-02-13T16:13:41.365Z,1.75
2024-02-13T16:23:43.273Z,2.38
2024-02-13T16:33:46.250Z,3.35
2024-02-13T16:43:51.890Z,2.42
2024-02-13T16:53:55.523Z,3.10
2024-02-13T17:03:57.633Z,2.72
2024-02-13T17:14:01.678Z,2.80
2024-02-13T17:24:04.087Z,3.10
2024-02-13T17:34:06.234Z,3.37
2024-02-13T17:44:08.287Z,3.20
2024-02-13T17:54:10.543Z,3.28
2024-02-13T18:04:12.389Z,4.55
2024-02-13T18:14:16.605Z,3.90
2024-02-13T18:24:18.459Z,3.83
2024-02-13T18:34:20.580Z,3.42
2024-02-13T18:44:24.143Z,3.72
2024-02-13T18:54:26.380Z,3.38
2024-02-13T19:04:28.480Z,4.78
2024-02-13T19:14:31.466Z,3.97
2024-02-13T19:24:33.280Z,4.13
2024-02-13T19:34:36.211Z,3.35
2024-02-13T19:44:39.432Z,4.40
2024-02-13T19:54:41.576Z,4.32
2024-02-13T20:04:47.204Z,4.30
2024-02-13T20:14:49.123Z,5.43
2024-02-13T20:24:51.004Z,5.18
2024-02-13T20:34:56.955Z,4.82
2024-02-13T20:45:10.109Z,4.50
2024-02-13T20:55:25.933Z,4.25
2024-02-13T21:05:30.870Z,4.60
2024-02-13T21:15:35.665Z,4.63
2024-02-13T21:25:37.648Z,4.65
2024-02-13T21:35:40.675Z,4.68
2024-02-13T21:45:49.677Z,4.80
2024-02-13T21:55:54.064Z,4.60
2024-02-13T22:05:56.316Z,4.85
2024-02-13T22:15:59.223Z,4.93
2024-02-13T22:26:04.438Z,4.77
2024-02-13T22:36:07.680Z,4.68
2024-02-13T22:46:13.952Z,4.20
2024-02-13T22:56:16.382Z,4.68
2024-02-13T23:06:18.552Z,4.72
2024-02-13T23:16:22.073Z,4.50
2024-02-13T23:26:24.933Z,4.80
2024-02-13T23:36:29.279Z,5.60
2024-02-13T23:46:32.717Z,6.40
2024-02-13T23:56:34.512Z,6.15
